Etusivu
METAR-TAF:

METAR-TAF

Lentoasemat :

Gloucester, Englanti

Leveyspiiri: 51-54N, Pituuspiiri: 002-10W, korkeus merenpinnasta: 29 m

Tämänhetkinen sää

Tämä raportti tehtiin 38 minuuttia sitten, kello 14.20 UTC
Tuuli 3 kn etelästä/lounaasta
Lämpötila 17°C
Kosteus 59%
Ilmanpaine 1015 hPa
Näkyvyys 10 km tai enemmän
Hajanaisia pilviä 1500 ft:n korkeudessa
Hajanaisia pilviä 2500 ft:n korkeudessa

METAR: EGBJ 291420Z 20003KT 9999 SCT015 SCT025 17/09 Q1015

Aika: 15:58 (14:58 UTC)

Sääennuste

Tämä raportti tehtiin 57 minuuttia sitten, kello 14.01 UTC
Ennuste voimassa 29. päivästä klo 15 UTC - 29. päivään klo 19 UTC
Tuuli 5 kn etelästä/lounaasta
Näkyvyys 10 km tai enemmän
Hajanaisia pilviä 2500 ft:n korkeudessa

TAF: EGBJ 291401Z 2915/2919 21005KT 9999 SCT025

Säähavainnot ja -ennusteet yli 4000 lentoasemalta (METAR- ja TAF-raportit).

Käytössä olevat sääasemat on merkitty karttaan keltaisilla ja punaisilla pisteillä.

Aseta hiiri pisteen päälle nähdäksesi sääaseman nimen.

Klikkaa sitten nähdäksesi säähavainnot ja -ennusteet.

Kartan vaihtaminen: klikkaa mustalla rastilla varustettuja vihreitä pisteitä, niin voit zoomata sisään; viivalla varustettua vihreää pistettä, niin voit zoomata ulos tai vihreitä nuolia, niin pääset viereisille kartoille.


METAR-TAF: